createdAt,value
2023-01-01T00:00:20.942Z,987.76
2023-01-01T00:01:20.909Z,987.80
2023-01-01T00:02:20.906Z,987.76
2023-01-01T00:03:21.097Z,987.84
2023-01-01T00:04:20.863Z,987.90
2023-01-01T00:05:20.837Z,987.91
2023-01-01T00:06:20.850Z,987.79
2023-01-01T00:07:20.821Z,987.91
2023-01-01T00:08:20.803Z,987.90
2023-01-01T00:09:20.796Z,987.94
2023-01-01T00:10:20.789Z,987.96
2023-01-01T00:11:20.778Z,987.95
2023-01-01T00:12:20.780Z,987.88
2023-01-01T00:13:20.781Z,987.90
2023-01-01T00:14:20.749Z,987.91
2023-01-01T00:15:20.836Z,987.95
2023-01-01T00:16:20.834Z,987.94
2023-01-01T00:17:20.714Z,987.93
2023-01-01T00:18:20.732Z,987.95
2023-01-01T00:19:20.697Z,987.87
2023-01-01T00:20:20.682Z,987.91
2023-01-01T00:21:20.664Z,987.94
2023-01-01T00:22:54.038Z,987.90
2023-01-01T00:23:22.681Z,987.94
2023-01-01T00:24:20.662Z,987.93
2023-01-01T00:25:20.686Z,987.94
2023-01-01T00:26:20.631Z,987.92
2023-01-01T00:27:20.627Z,987.90
2023-01-01T00:28:20.614Z,987.89
2023-01-01T00:29:20.591Z,987.85
2023-01-01T00:30:20.634Z,987.81
2023-01-01T00:31:20.605Z,987.97
2023-01-01T00:32:22.903Z,987.96
2023-01-01T00:33:20.591Z,988.01
2023-01-01T00:34:20.565Z,988.02
2023-01-01T00:35:20.572Z,987.98
2023-01-01T00:36:20.507Z,987.96
2023-01-01T00:37:20.539Z,988.00
2023-01-01T00:38:20.501Z,987.98
2023-01-01T00:39:20.491Z,987.90
2023-01-01T00:40:20.515Z,987.99
2023-01-01T00:41:20.497Z,987.92
2023-01-01T00:42:20.460Z,987.98
2023-01-01T00:43:20.456Z,987.92
2023-01-01T00:44:20.454Z,988.04
2023-01-01T00:45:22.400Z,987.96
2023-01-01T00:46:21.467Z,987.94
2023-01-01T00:47:20.456Z,987.91
2023-01-01T00:48:20.410Z,987.82
2023-01-01T00:49:20.405Z,987.91
2023-01-01T00:50:20.433Z,987.98
2023-01-01T00:51:20.375Z,987.95
2023-01-01T00:52:20.424Z,988.02
2023-01-01T00:53:20.380Z,987.97
2023-01-01T00:54:20.378Z,987.92
2023-01-01T00:55:20.354Z,987.97
2023-01-01T00:56:20.332Z,988.08
2023-01-01T00:57:20.317Z,987.96
2023-01-01T00:58:20.319Z,987.97
2023-01-01T00:59:23.905Z,988.01
2023-01-01T01:00:22.289Z,987.97
2023-01-01T01:01:20.376Z,988.03
2023-01-01T01:02:20.406Z,988.08
2023-01-01T01:03:20.359Z,988.05
2023-01-01T01:04:20.262Z,987.94
2023-01-01T01:05:20.222Z,988.02
2023-01-01T01:06:20.290Z,988.01
2023-01-01T01:07:20.497Z,988.01
2023-01-01T01:08:23.027Z,987.98
2023-01-01T01:09:21.242Z,987.92
2023-01-01T01:10:20.211Z,987.87
2023-01-01T01:11:20.186Z,988.01
2023-01-01T01:12:20.240Z,987.90
2023-01-01T01:13:20.168Z,987.91
2023-01-01T01:14:20.162Z,987.90
2023-01-01T01:15:20.130Z,987.86
2023-01-01T01:16:20.223Z,987.88
2023-01-01T01:17:20.146Z,987.82
2023-01-01T01:18:20.105Z,987.75
2023-01-01T01:19:20.144Z,987.79
2023-01-01T01:20:20.092Z,987.77
2023-01-01T01:21:20.127Z,987.75
2023-01-01T01:22:25.954Z,987.88
2023-01-01T01:23:21.058Z,987.73
2023-01-01T01:24:20.079Z,987.75
2023-01-01T01:25:20.246Z,987.84
2023-01-01T01:26:20.036Z,987.84
2023-01-01T01:27:20.045Z,987.85
2023-01-01T01:28:20.105Z,987.87
2023-01-01T01:29:20.040Z,987.85
2023-01-01T01:30:20.008Z,987.79
2023-01-01T01:31:20.061Z,987.84
2023-01-01T01:32:19.971Z,987.93
2023-01-01T01:33:19.961Z,987.92
2023-01-01T01:34:25.612Z,987.92
2023-01-01T01:35:21.960Z,987.87
2023-01-01T01:36:51.821Z,987.98
2023-01-01T01:37:19.902Z,987.91
2023-01-01T01:38:19.901Z,987.92
2023-01-01T01:39:19.891Z,987.94
2023-01-01T01:40:19.869Z,987.92
2023-01-01T01:41:27.746Z,987.97
2023-01-01T01:42:21.888Z,988.03
2023-01-01T01:43:19.835Z,987.98
2023-01-01T01:44:19.825Z,988.02
2023-01-01T01:45:19.818Z,988.05
2023-01-01T01:46:19.817Z,988.02
2023-01-01T01:47:19.819Z,988.05
2023-01-01T01:48:19.801Z,988.06
2023-01-01T01:49:19.780Z,988.06
2023-01-01T01:50:19.777Z,988.04
2023-01-01T01:51:19.769Z,988.04
2023-01-01T01:52:19.772Z,988.04
2023-01-01T01:53:19.773Z,988.00
2023-01-01T01:54:19.741Z,988.06
2023-01-01T01:55:19.754Z,988.04
2023-01-01T01:56:19.713Z,988.10
2023-01-01T01:57:19.707Z,988.11
2023-01-01T01:58:19.697Z,988.20
2023-01-01T01:59:19.697Z,988.10
2023-01-01T02:00:19.716Z,988.09
2023-01-01T02:01:19.744Z,988.10
2023-01-01T02:02:19.954Z,988.14
2023-01-01T02:03:19.662Z,988.19
2023-01-01T02:04:20.638Z,988.16
2023-01-01T02:05:19.649Z,988.17
2023-01-01T02:06:19.644Z,988.15
2023-01-01T02:07:19.610Z,988.05
2023-01-01T02:08:19.597Z,988.09
2023-01-01T02:09:19.595Z,988.11
2023-01-01T02:10:19.577Z,988.15
2023-01-01T02:11:22.094Z,988.11
2023-01-01T02:12:20.564Z,988.09
2023-01-01T02:13:19.563Z,988.01
2023-01-01T02:14:19.544Z,988.07
2023-01-01T02:15:19.549Z,988.01
2023-01-01T02:16:19.601Z,988.09
2023-01-01T02:17:19.502Z,988.00
2023-01-01T02:18:19.512Z,988.05
2023-01-01T02:19:19.495Z,988.10
2023-01-01T02:20:19.510Z,988.03
2023-01-01T02:21:19.515Z,988.15
2023-01-01T02:22:19.470Z,988.09
2023-01-01T02:23:19.460Z,988.14
2023-01-01T02:24:19.454Z,988.09
2023-01-01T02:25:19.443Z,988.16
2023-01-01T02:26:19.448Z,988.17
2023-01-01T02:27:19.453Z,988.11
2023-01-01T02:28:19.439Z,988.10
2023-01-01T02:29:19.401Z,988.12
2023-01-01T02:30:19.393Z,988.12
2023-01-01T02:31:23.159Z,988.15
2023-01-01T02:32:20.379Z,988.09
2023-01-01T02:33:19.376Z,988.10
2023-01-01T02:34:19.356Z,988.17
2023-01-01T02:35:19.350Z,988.10
2023-01-01T02:36:19.342Z,988.11
2023-01-01T02:37:19.326Z,988.18
2023-01-01T02:38:19.339Z,988.20
2023-01-01T02:39:19.309Z,988.14
2023-01-01T02:40:19.298Z,988.17
2023-01-01T02:41:19.314Z,988.16
2023-01-01T02:42:19.281Z,988.14
2023-01-01T02:43:24.578Z,988.13
2023-01-01T02:44:21.249Z,988.14
2023-01-01T02:45:19.291Z,988.14
2023-01-01T02:47:04.503Z,988.20
2023-01-01T02:48:04.514Z,988.19
2023-01-01T02:49:09.923Z,988.23
2023-01-01T02:50:04.511Z,988.26
2023-01-01T02:51:04.486Z,988.24
2023-01-01T02:52:04.492Z,988.26
2023-01-01T02:53:04.467Z,988.19
2023-01-01T02:54:04.460Z,988.22
2023-01-01T02:55:05.580Z,988.28
2023-01-01T02:56:05.599Z,988.32
2023-01-01T02:57:05.565Z,988.34
2023-01-01T02:58:05.562Z,988.31
2023-01-01T02:59:05.532Z,988.38
2023-01-01T03:00:05.519Z,988.31
2023-01-01T03:01:05.533Z,988.33
2023-01-01T03:02:05.607Z,988.31
2023-01-01T03:03:05.670Z,988.33
2023-01-01T03:04:05.487Z,988.34
2023-01-01T03:05:05.489Z,988.26
2023-01-01T03:06:05.487Z,988.31
2023-01-01T03:07:05.455Z,988.27
2023-01-01T03:08:05.501Z,988.34
2023-01-01T03:09:05.436Z,988.23
2023-01-01T03:10:05.425Z,988.28
2023-01-01T03:11:05.409Z,988.32
2023-01-01T03:12:05.414Z,988.29
2023-01-01T03:13:05.426Z,988.29
2023-01-01T03:14:05.407Z,988.30
2023-01-01T03:15:05.396Z,988.23
2023-01-01T03:16:05.412Z,988.31
2023-01-01T03:17:05.395Z,988.24
2023-01-01T03:18:05.343Z,988.27
2023-01-01T03:19:05.339Z,988.26
2023-01-01T03:20:05.335Z,988.27
2023-01-01T03:21:05.316Z,988.26
2023-01-01T03:22:05.325Z,988.33
2023-01-01T03:23:05.304Z,988.35
2023-01-01T03:24:05.286Z,988.34
2023-01-01T03:25:05.271Z,988.32
2023-01-01T03:26:05.277Z,988.33
2023-01-01T03:27:05.291Z,988.37
2023-01-01T03:28:05.256Z,988.45
2023-01-01T03:29:05.278Z,988.35
2023-01-01T03:30:05.243Z,988.39
2023-01-01T03:31:05.262Z,988.45
2023-01-01T03:32:05.205Z,988.44
2023-01-01T03:33:05.210Z,988.44
2023-01-01T03:34:05.203Z,988.50
2023-01-01T03:35:05.182Z,988.50
2023-01-01T03:36:05.185Z,988.48
2023-01-01T03:37:05.162Z,988.59
2023-01-01T03:38:05.153Z,988.54
2023-01-01T03:39:05.136Z,988.50
2023-01-01T03:40:05.118Z,988.47
2023-01-01T03:41:05.139Z,988.62
2023-01-01T03:42:05.123Z,988.62
2023-01-01T03:43:05.102Z,988.58
2023-01-01T03:44:05.083Z,988.58
2023-01-01T03:45:05.112Z,988.56
2023-01-01T03:46:05.109Z,988.39
2023-01-01T03:47:05.100Z,988.38
2023-01-01T03:48:05.051Z,988.42
2023-01-01T03:49:05.037Z,988.45
2023-01-01T03:50:05.053Z,988.47
2023-01-01T03:51:05.040Z,988.44
2023-01-01T03:52:05.013Z,988.36
2023-01-01T03:53:05.020Z,988.36
2023-01-01T03:54:04.996Z,988.44
2023-01-01T03:55:04.985Z,988.41
2023-01-01T03:56:04.965Z,988.60
2023-01-01T03:57:05.951Z,988.62
2023-01-01T03:58:04.980Z,988.59
2023-01-01T03:59:04.932Z,988.57
2023-01-01T04:00:04.937Z,988.65
2023-01-01T04:01:04.964Z,988.61
2023-01-01T04:02:04.998Z,988.63
2023-01-01T04:03:04.970Z,988.65
2023-01-01T04:04:04.945Z,988.64
2023-01-01T04:05:04.876Z,988.75
2023-01-01T04:06:04.886Z,988.66
2023-01-01T04:07:14.880Z,988.60
2023-01-01T04:08:05.863Z,988.59
2023-01-01T04:09:04.850Z,988.57
2023-01-01T04:10:04.836Z,988.60
2023-01-01T04:11:04.820Z,988.67
2023-01-01T04:12:04.856Z,988.69
2023-01-01T04:13:04.810Z,988.66
2023-01-01T04:14:04.795Z,988.71
2023-01-01T04:15:04.801Z,988.74
2023-01-01T04:16:04.819Z,988.72
2023-01-01T04:17:04.814Z,988.72
2023-01-01T04:18:04.772Z,988.72
2023-01-01T04:19:04.746Z,988.67
2023-01-01T04:20:04.732Z,988.69
2023-01-01T04:21:04.726Z,988.75
2023-01-01T04:22:04.730Z,988.75
2023-01-01T04:23:04.724Z,988.77
2023-01-01T04:24:04.688Z,988.69
2023-01-01T04:25:04.700Z,988.68
2023-01-01T04:26:04.711Z,988.68
2023-01-01T04:27:04.663Z,988.83
2023-01-01T04:28:04.657Z,988.72
2023-01-01T04:29:04.635Z,988.77
2023-01-01T04:30:04.638Z,988.74
2023-01-01T04:31:04.648Z,988.78
2023-01-01T04:32:04.605Z,988.76
2023-01-01T04:33:04.593Z,988.75
2023-01-01T04:34:04.593Z,988.73
2023-01-01T04:35:04.578Z,988.75
2023-01-01T04:36:04.567Z,988.75
2023-01-01T04:37:08.293Z,988.78
2023-01-01T04:38:06.551Z,988.80
2023-01-01T04:39:04.536Z,988.78
2023-01-01T04:40:04.521Z,988.72
2023-01-01T04:41:04.514Z,988.73
2023-01-01T04:42:04.517Z,988.68
2023-01-01T04:43:04.518Z,988.68
2023-01-01T04:44:04.493Z,988.76
2023-01-01T04:45:04.476Z,988.79
2023-01-01T04:46:04.553Z,988.74
2023-01-01T04:47:04.464Z,988.67
2023-01-01T04:48:04.456Z,988.77
2023-01-01T04:49:04.443Z,988.75
2023-01-01T04:50:04.445Z,988.75
2023-01-01T04:51:04.431Z,988.68
2023-01-01T04:52:04.408Z,988.71
2023-01-01T04:53:04.396Z,988.76
2023-01-01T04:54:04.401Z,988.78
2023-01-01T04:55:04.395Z,988.78
2023-01-01T04:56:04.370Z,988.84
2023-01-01T04:57:04.396Z,988.77
2023-01-01T04:58:04.356Z,988.78
2023-01-01T04:59:04.337Z,988.73
2023-01-01T05:00:04.362Z,988.73
2023-01-01T05:01:04.426Z,988.72
2023-01-01T05:02:04.407Z,988.75
2023-01-01T05:03:04.320Z,988.86
2023-01-01T05:04:04.299Z,988.91
2023-01-01T05:05:04.285Z,988.77
2023-01-01T05:06:04.267Z,988.89
2023-01-01T05:07:04.278Z,988.93
2023-01-01T05:08:04.254Z,988.86
2023-01-01T05:09:04.230Z,988.91
2023-01-01T05:10:04.228Z,988.89
2023-01-01T05:11:04.227Z,988.88
2023-01-01T05:12:04.235Z,988.91
2023-01-01T05:13:04.204Z,988.94
2023-01-01T05:14:04.185Z,988.95
2023-01-01T05:15:04.185Z,989.02
2023-01-01T05:16:04.190Z,989.09
2023-01-01T05:17:04.155Z,989.07
2023-01-01T05:18:04.214Z,989.10
2023-01-01T05:19:04.163Z,989.13
2023-01-01T05:20:04.141Z,989.19
2023-01-01T05:21:04.145Z,989.17
2023-01-01T05:22:10.157Z,989.11
2023-01-01T05:23:06.106Z,989.17
2023-01-01T05:24:04.118Z,989.15
2023-01-01T05:25:04.108Z,989.26
2023-01-01T05:26:04.075Z,989.24
2023-01-01T05:27:04.061Z,989.26
2023-01-01T05:28:04.052Z,989.10
2023-01-01T05:29:04.054Z,989.23
2023-01-01T05:30:04.076Z,989.22
2023-01-01T05:31:04.019Z,989.21
2023-01-01T05:32:04.047Z,989.18
2023-01-01T05:33:04.001Z,989.22
2023-01-01T05:34:49.235Z,989.26
2023-01-01T05:35:49.276Z,989.31
2023-01-01T05:36:50.382Z,989.40
2023-01-01T05:37:50.363Z,989.39
2023-01-01T05:38:50.378Z,989.43
2023-01-01T05:39:50.344Z,989.41
2023-01-01T05:40:50.342Z,989.41
2023-01-01T05:41:50.316Z,989.33
2023-01-01T05:42:50.321Z,989.39
2023-01-01T05:43:50.291Z,989.39
2023-01-01T05:44:50.277Z,989.37
2023-01-01T05:45:51.326Z,989.34
2023-01-01T05:46:50.310Z,989.25
2023-01-01T05:47:50.269Z,989.27
2023-01-01T05:48:50.252Z,989.28
2023-01-01T05:49:50.259Z,989.32
2023-01-01T05:50:50.228Z,989.17
2023-01-01T05:51:50.224Z,989.31
2023-01-01T05:52:50.301Z,989.30
2023-01-01T05:53:50.222Z,989.37
2023-01-01T05:54:50.202Z,989.29
2023-01-01T05:55:50.184Z,989.32
2023-01-01T05:56:50.164Z,989.29
2023-01-01T05:57:50.162Z,989.27
2023-01-01T05:58:50.150Z,989.36
2023-01-01T05:59:50.156Z,989.45
2023-01-01T06:00:50.171Z,989.45
2023-01-01T06:01:50.242Z,989.35
2023-01-01T06:02:50.263Z,989.38
2023-01-01T06:03:50.108Z,989.32
2023-01-01T06:04:50.172Z,989.34
2023-01-01T06:05:50.076Z,989.34
2023-01-01T06:06:50.092Z,989.37
2023-01-01T06:07:50.065Z,989.32
2023-01-01T06:08:50.058Z,989.35
2023-01-01T06:09:50.036Z,989.33
2023-01-01T06:10:50.030Z,989.37
2023-01-01T06:11:50.030Z,989.38
2023-01-01T06:12:50.041Z,989.34
2023-01-01T06:13:49.996Z,989.39
2023-01-01T06:14:49.986Z,989.39
2023-01-01T06:15:49.972Z,989.38
2023-01-01T06:16:50.002Z,989.42
2023-01-01T06:17:49.963Z,989.37
2023-01-01T06:18:49.972Z,989.30
2023-01-01T06:19:49.945Z,989.33
2023-01-01T06:20:49.914Z,989.39
2023-01-01T06:21:49.928Z,989.39
2023-01-01T06:22:49.895Z,989.35
2023-01-01T06:23:49.912Z,989.38
2023-01-01T06:24:49.900Z,989.37
2023-01-01T06:25:49.892Z,989.34
2023-01-01T06:26:49.862Z,989.30
2023-01-01T06:27:49.876Z,989.32
2023-01-01T06:28:49.917Z,989.31
2023-01-01T06:29:49.854Z,989.29
2023-01-01T06:30:49.869Z,989.33
2023-01-01T06:31:49.866Z,989.38
2023-01-01T06:32:49.814Z,989.42
2023-01-01T06:33:49.817Z,989.47
2023-01-01T06:34:49.798Z,989.52
2023-01-01T06:35:49.767Z,989.65
2023-01-01T06:36:49.778Z,989.61
2023-01-01T06:37:49.759Z,989.57
2023-01-01T06:38:49.762Z,989.48
2023-01-01T06:39:49.774Z,989.54
2023-01-01T06:40:49.736Z,989.51
2023-01-01T06:41:49.726Z,989.53
2023-01-01T06:42:49.720Z,989.55
2023-01-01T06:43:49.705Z,989.61
2023-01-01T06:44:49.706Z,989.56
2023-01-01T06:45:49.708Z,989.57
2023-01-01T06:46:49.664Z,989.55
2023-01-01T06:47:49.653Z,989.61
2023-01-01T06:48:49.662Z,989.64
2023-01-01T06:49:49.657Z,989.60
2023-01-01T06:50:49.660Z,989.69
2023-01-01T06:51:49.656Z,989.78
2023-01-01T06:52:49.607Z,989.69
2023-01-01T06:53:49.601Z,989.72
2023-01-01T06:54:49.585Z,989.66
2023-01-01T06:55:54.939Z,989.71
2023-01-01T06:56:51.583Z,989.77
2023-01-01T06:57:49.572Z,989.79
2023-01-01T06:58:49.565Z,989.77
2023-01-01T06:59:49.546Z,989.79
2023-01-01T07:00:49.543Z,989.81
2023-01-01T07:01:49.582Z,989.83
2023-01-01T07:02:49.632Z,989.86
2023-01-01T07:03:49.496Z,989.80
2023-01-01T07:04:49.483Z,989.90
2023-01-01T07:05:49.474Z,989.80
2023-01-01T07:06:49.466Z,989.88
2023-01-01T07:07:49.471Z,989.86
2023-01-01T07:08:49.461Z,990.01
2023-01-01T07:09:49.461Z,989.92
2023-01-01T07:10:49.435Z,989.96
2023-01-01T07:11:49.419Z,989.90
2023-01-01T07:12:49.431Z,989.96
2023-01-01T07:13:49.382Z,989.86
2023-01-01T07:14:49.400Z,989.80
2023-01-01T07:15:49.484Z,989.81
2023-01-01T07:16:49.358Z,989.86
2023-01-01T07:17:49.370Z,989.89
2023-01-01T07:18:49.354Z,989.88
2023-01-01T07:19:49.373Z,989.94
2023-01-01T07:20:49.328Z,989.92
2023-01-01T07:21:49.316Z,989.99
2023-01-01T07:22:49.301Z,990.09
2023-01-01T07:23:49.319Z,990.09
2023-01-01T07:24:49.303Z,990.09
2023-01-01T07:25:49.275Z,990.19
2023-01-01T07:26:49.311Z,990.19
2023-01-01T07:27:49.253Z,990.21
2023-01-01T07:28:49.264Z,990.19
2023-01-01T07:29:49.245Z,990.26
2023-01-01T07:30:49.290Z,990.34
2023-01-01T07:31:49.250Z,990.30
2023-01-01T07:32:49.218Z,990.27
2023-01-01T07:33:49.203Z,990.33
2023-01-01T07:34:50.911Z,990.28
2023-01-01T07:35:50.184Z,990.36
2023-01-01T07:37:21.078Z,990.38
2023-01-01T07:37:49.160Z,990.45
2023-01-01T07:38:49.155Z,990.42
2023-01-01T07:39:49.152Z,990.44
2023-01-01T07:40:49.167Z,990.46
2023-01-01T07:41:49.137Z,990.44
2023-01-01T07:42:49.134Z,990.57
2023-01-01T07:43:49.171Z,990.56
2023-01-01T07:44:49.113Z,990.52
2023-01-01T07:45:49.070Z,990.47
2023-01-01T07:46:49.105Z,990.53
2023-01-01T07:47:49.096Z,990.47
2023-01-01T07:48:49.070Z,990.41
2023-01-01T07:49:49.056Z,990.45
2023-01-01T07:50:49.095Z,990.45
2023-01-01T07:51:49.018Z,990.58
2023-01-01T07:52:49.045Z,990.51
2023-01-01T07:53:49.023Z,990.50
2023-01-01T07:54:48.999Z,990.58
2023-01-01T07:55:48.995Z,990.46
2023-01-01T07:56:48.971Z,990.59
2023-01-01T07:57:48.960Z,990.47
2023-01-01T07:58:48.954Z,990.52
2023-01-01T07:59:48.964Z,990.54
2023-01-01T08:00:48.943Z,990.66
2023-01-01T08:01:48.997Z,990.67
2023-01-01T08:02:49.028Z,990.73
2023-01-01T08:03:48.906Z,990.75
2023-01-01T08:04:48.941Z,990.77
2023-01-01T08:05:48.895Z,990.64
2023-01-01T08:06:48.877Z,990.63
2023-01-01T08:07:48.865Z,990.72
2023-01-01T08:08:48.877Z,990.79
2023-01-01T08:09:48.842Z,990.92
2023-01-01T08:10:48.839Z,990.85
2023-01-01T08:11:48.818Z,990.78
2023-01-01T08:12:48.854Z,990.72
2023-01-01T08:13:48.818Z,990.81
2023-01-01T08:14:48.809Z,990.88
2023-01-01T08:15:48.800Z,990.89
2023-01-01T08:16:48.780Z,990.94
2023-01-01T08:17:48.795Z,990.88
2023-01-01T08:18:48.755Z,990.85
2023-01-01T08:19:48.761Z,990.88
2023-01-01T08:20:48.743Z,990.95
2023-01-01T08:21:48.727Z,990.83
2023-01-01T08:22:48.729Z,990.78
2023-01-01T08:23:48.703Z,990.86
2023-01-01T08:24:48.724Z,990.74
2023-01-01T08:25:48.733Z,990.80
2023-01-01T08:26:48.676Z,990.74
2023-01-01T08:27:48.687Z,990.80
2023-01-01T08:28:53.507Z,990.78
2023-01-01T08:29:48.646Z,990.79
2023-01-01T08:30:48.634Z,990.72
2023-01-01T08:31:48.673Z,990.64
2023-01-01T08:32:48.622Z,990.69
2023-01-01T08:33:48.641Z,990.66
2023-01-01T08:34:48.608Z,990.59
2023-01-01T08:35:53.835Z,990.62
2023-01-01T08:36:49.588Z,990.66
2023-01-01T08:37:48.607Z,990.55
2023-01-01T08:38:48.553Z,990.52
2023-01-01T08:39:48.559Z,990.54
2023-01-01T08:40:49.573Z,990.52
2023-01-01T08:41:48.528Z,990.46
2023-01-01T08:42:48.550Z,990.45
2023-01-01T08:43:48.536Z,990.59
2023-01-01T08:44:48.498Z,990.58
2023-01-01T08:45:48.480Z,990.53
2023-01-01T08:46:48.503Z,990.53
2023-01-01T08:47:48.458Z,990.57
2023-01-01T08:48:48.485Z,990.68
2023-01-01T08:49:48.470Z,990.58
2023-01-01T08:50:48.451Z,990.56
2023-01-01T08:51:48.424Z,990.60
2023-01-01T08:52:48.423Z,990.49
2023-01-01T08:53:51.329Z,990.48
2023-01-01T08:54:49.389Z,990.51
2023-01-01T08:55:48.388Z,990.52
2023-01-01T08:56:48.373Z,990.55
2023-01-01T08:57:48.377Z,990.56
2023-01-01T08:58:48.365Z,990.56
2023-01-01T08:59:48.366Z,990.69
2023-01-01T09:00:48.344Z,990.69
2023-01-01T09:01:48.432Z,990.58
2023-01-01T09:02:48.453Z,990.59
2023-01-01T09:03:48.335Z,990.63
2023-01-01T09:04:48.307Z,990.66
2023-01-01T09:05:48.303Z,990.66
2023-01-01T09:06:48.283Z,990.61
2023-01-01T09:07:48.276Z,990.57
2023-01-01T09:08:48.289Z,990.57
2023-01-01T09:09:48.285Z,990.62
2023-01-01T09:10:48.270Z,990.63
2023-01-01T09:11:48.257Z,990.72
2023-01-01T09:12:48.221Z,990.78
2023-01-01T09:13:48.243Z,990.82
2023-01-01T09:14:48.235Z,990.85
2023-01-01T09:15:48.230Z,990.86
2023-01-01T09:16:48.230Z,990.93
2023-01-01T09:17:48.175Z,991.01
2023-01-01T09:18:48.176Z,991.05
2023-01-01T09:19:48.195Z,991.07
2023-01-01T09:20:48.160Z,991.02
2023-01-01T09:21:48.152Z,991.13
2023-01-01T09:22:48.144Z,991.12
2023-01-01T09:23:48.124Z,991.01
2023-01-01T09:24:48.105Z,991.05
2023-01-01T09:25:48.126Z,991.09
2023-01-01T09:26:48.099Z,991.11
2023-01-01T09:27:48.084Z,991.10
2023-01-01T09:28:48.091Z,991.16
2023-01-01T09:29:48.048Z,991.23
2023-01-01T09:30:48.062Z,991.16
2023-01-01T09:31:48.080Z,991.19
2023-01-01T09:32:48.031Z,991.31
2023-01-01T09:33:48.011Z,991.24
2023-01-01T09:34:52.333Z,991.11
2023-01-01T09:35:49.021Z,991.23
2023-01-01T09:36:48.003Z,991.26
2023-01-01T09:37:48.017Z,991.31
2023-01-01T09:38:47.970Z,991.40
2023-01-01T09:39:47.958Z,991.36
2023-01-01T09:40:51.298Z,991.41
2023-01-01T09:41:48.941Z,991.35
2023-01-01T09:42:47.952Z,991.30
2023-01-01T09:43:47.916Z,991.25
2023-01-01T09:44:47.907Z,991.21
2023-01-01T09:45:47.944Z,991.27
2023-01-01T09:46:47.905Z,991.29
2023-01-01T09:47:47.877Z,991.32
2023-01-01T09:48:47.886Z,991.33
2023-01-01T09:49:47.855Z,991.39
2023-01-01T09:50:47.883Z,991.44
2023-01-01T09:51:53.883Z,991.50
2023-01-01T09:52:48.837Z,991.53
2023-01-01T09:53:47.824Z,991.51
2023-01-01T09:54:47.805Z,991.43
2023-01-01T09:55:47.834Z,991.42
2023-01-01T09:56:47.807Z,991.39
2023-01-01T09:57:47.804Z,991.43
2023-01-01T09:58:47.766Z,991.47
2023-01-01T09:59:47.758Z,991.49
2023-01-01T10:00:47.759Z,991.39
2023-01-01T10:01:47.829Z,991.43
2023-01-01T10:02:51.724Z,991.46
2023-01-01T10:03:49.799Z,991.43
2023-01-01T10:04:47.716Z,991.40
2023-01-01T10:05:47.713Z,991.47
2023-01-01T10:06:47.701Z,991.46
2023-01-01T10:07:47.668Z,991.46
2023-01-01T10:08:47.667Z,991.49
2023-01-01T10:09:47.688Z,991.44
2023-01-01T10:10:47.660Z,991.44
2023-01-01T10:11:47.643Z,991.48
2023-01-01T10:12:47.651Z,991.45
2023-01-01T10:13:47.637Z,991.55
2023-01-01T10:14:47.625Z,991.49
2023-01-01T10:15:47.626Z,991.54
2023-01-01T10:16:47.610Z,991.48
2023-01-01T10:17:47.587Z,991.50
2023-01-01T10:18:47.571Z,991.55
2023-01-01T10:19:47.564Z,991.61
2023-01-01T10:20:47.560Z,991.54
2023-01-01T10:21:47.707Z,991.54
2023-01-01T10:22:47.545Z,991.50
2023-01-01T10:23:47.518Z,991.50
2023-01-01T10:24:47.524Z,991.45
2023-01-01T10:25:47.501Z,991.51
2023-01-01T10:26:47.546Z,991.43
2023-01-01T10:27:47.498Z,991.43
2023-01-01T10:28:47.467Z,991.47
2023-01-01T10:29:47.452Z,991.36
2023-01-01T10:30:47.448Z,991.39
2023-01-01T10:31:47.535Z,991.41
2023-01-01T10:32:47.422Z,991.38
2023-01-01T10:33:47.409Z,991.29
2023-01-01T10:34:47.406Z,991.34
2023-01-01T10:35:47.408Z,991.37
2023-01-01T10:36:47.447Z,991.32
2023-01-01T10:37:47.393Z,991.26
2023-01-01T10:38:47.365Z,991.26
2023-01-01T10:39:47.466Z,991.21
2023-01-01T10:40:47.352Z,991.27
2023-01-01T10:41:47.330Z,991.22
2023-01-01T10:42:47.347Z,991.28
2023-01-01T10:43:47.313Z,991.30
2023-01-01T10:44:47.300Z,991.36
2023-01-01T10:45:47.318Z,991.36
2023-01-01T10:46:47.308Z,991.39
2023-01-01T10:47:47.300Z,991.45
2023-01-01T10:48:47.260Z,991.47
2023-01-01T10:49:47.265Z,991.44
2023-01-01T10:50:47.245Z,991.47
2023-01-01T10:51:47.237Z,991.46
2023-01-01T10:52:47.250Z,991.48
2023-01-01T10:53:47.232Z,991.44
2023-01-01T10:54:47.219Z,991.38
2023-01-01T10:55:47.220Z,991.43
2023-01-01T10:56:47.187Z,991.42
2023-01-01T10:57:47.201Z,991.40
2023-01-01T10:58:47.198Z,991.37
2023-01-01T10:59:53.971Z,991.34
2023-01-01T11:00:48.243Z,991.43
2023-01-01T11:01:47.213Z,991.47
2023-01-01T11:02:47.291Z,991.49
2023-01-01T11:03:47.132Z,991.43
2023-01-01T11:04:47.100Z,991.48
2023-01-01T11:05:47.116Z,991.57
2023-01-01T11:06:47.100Z,991.59
2023-01-01T11:07:47.088Z,991.55
2023-01-01T11:08:47.064Z,991.62
2023-01-01T11:10:02.069Z,991.58
2023-01-01T11:10:49.104Z,991.52
2023-01-01T11:11:47.081Z,991.53
2023-01-01T11:13:04.716Z,991.46
2023-01-01T11:13:49.033Z,991.49
2023-01-01T11:14:47.016Z,991.45
2023-01-01T11:15:47.026Z,991.40
2023-01-01T11:16:47.054Z,991.43
2023-01-01T11:17:46.986Z,991.32
2023-01-01T11:18:46.981Z,991.39
2023-01-01T11:19:51.311Z,991.37
2023-01-01T11:20:47.951Z,991.32
2023-01-01T11:21:46.955Z,991.22
2023-01-01T11:22:46.958Z,991.37
2023-01-01T11:23:46.919Z,991.33
2023-01-01T11:24:46.915Z,991.32
2023-01-01T11:25:46.890Z,991.27
2023-01-01T11:26:53.912Z,991.25
2023-01-01T11:27:48.904Z,991.25
2023-01-01T11:28:47.902Z,991.30
2023-01-01T11:29:46.859Z,991.30
2023-01-01T11:30:46.869Z,991.36
2023-01-01T11:31:46.852Z,991.34
2023-01-01T11:32:50.521Z,991.38
2023-01-01T11:33:48.841Z,991.31
2023-01-01T11:34:46.818Z,991.34
2023-01-01T11:35:46.790Z,991.31
2023-01-01T11:36:46.790Z,991.39
2023-01-01T11:37:46.792Z,991.36
2023-01-01T11:38:46.790Z,991.33
2023-01-01T11:39:46.762Z,991.35
2023-01-01T11:40:46.758Z,991.27
2023-01-01T11:41:46.752Z,991.24
2023-01-01T11:42:46.824Z,991.25
2023-01-01T11:43:46.754Z,991.24
2023-01-01T11:44:46.718Z,991.28
2023-01-01T11:45:46.733Z,991.24
2023-01-01T11:46:46.702Z,991.21
2023-01-01T11:47:46.672Z,991.30
2023-01-01T11:48:46.682Z,991.29
2023-01-01T11:49:46.674Z,991.27
2023-01-01T11:50:50.415Z,991.14
2023-01-01T11:51:48.659Z,991.19
2023-01-01T11:52:46.638Z,991.16
2023-01-01T11:53:46.637Z,991.13
2023-01-01T11:54:47.619Z,991.18
2023-01-01T11:55:46.616Z,991.17
2023-01-01T11:56:46.601Z,991.20
2023-01-01T11:57:46.589Z,991.18
2023-01-01T11:58:46.600Z,991.14
2023-01-01T11:59:46.588Z,991.19
2023-01-01T12:00:46.562Z,991.14
2023-01-01T12:01:46.621Z,991.12
2023-01-01T12:02:46.590Z,991.14
2023-01-01T12:03:46.553Z,991.17
2023-01-01T12:04:46.503Z,991.08
2023-01-01T12:05:46.525Z,991.18
2023-01-01T12:06:46.491Z,991.14
2023-01-01T12:07:46.492Z,991.15
2023-01-01T12:08:46.467Z,991.14
2023-01-01T12:09:46.476Z,991.10
2023-01-01T12:10:46.443Z,991.06
2023-01-01T12:11:46.438Z,991.10
2023-01-01T12:12:46.439Z,991.15
2023-01-01T12:13:46.416Z,991.09
2023-01-01T12:14:46.433Z,991.07
2023-01-01T12:15:46.429Z,991.06
2023-01-01T12:16:47.390Z,991.10
2023-01-01T12:17:46.381Z,991.06
2023-01-01T12:18:46.387Z,991.13
2023-01-01T12:19:46.390Z,991.13
2023-01-01T12:20:46.364Z,991.11
2023-01-01T12:21:52.405Z,991.07
2023-01-01T12:22:48.333Z,991.03
2023-01-01T12:23:46.326Z,991.09
2023-01-01T12:24:46.327Z,991.04
2023-01-01T12:25:46.312Z,991.04
2023-01-01T12:26:46.292Z,991.05
2023-01-01T12:27:46.286Z,991.01
2023-01-01T12:28:46.281Z,991.07
2023-01-01T12:29:46.262Z,991.06